createdAt,value
2019-02-22T00:01:44.775Z,21.80
2019-02-22T00:04:14.068Z,22.13
2019-02-22T00:06:43.351Z,21.03
2019-02-22T00:09:12.647Z,22.10
2019-02-22T00:11:41.929Z,21.67
2019-02-22T00:14:11.248Z,21.33
2019-02-22T00:16:40.578Z,21.63
2019-02-22T00:19:09.881Z,21.67
2019-02-22T00:21:39.161Z,23.20
2019-02-22T00:24:08.447Z,21.97
2019-02-22T00:26:37.736Z,23.10
2019-02-22T00:29:07.057Z,22.13
2019-02-22T00:31:36.334Z,23.67
2019-02-22T00:34:05.654Z,22.87
2019-02-22T00:36:34.959Z,21.80
2019-02-22T00:39:05.123Z,22.60
2019-02-22T00:41:35.774Z,24.23
2019-02-22T00:44:05.054Z,24.20
2019-02-22T00:46:34.352Z,22.80
2019-02-22T00:49:03.647Z,22.27
2019-02-22T00:51:32.937Z,22.80
2019-02-22T00:54:02.210Z,23.10
2019-02-22T00:56:31.505Z,23.20
2019-02-22T00:59:00.784Z,21.60
2019-02-22T01:01:30.079Z,23.87
2019-02-22T01:03:59.363Z,22.27
2019-02-22T01:06:28.657Z,22.40
2019-02-22T01:08:59.023Z,21.87
2019-02-22T01:11:28.307Z,22.83
2019-02-22T01:13:57.587Z,21.00
2019-02-22T01:16:26.879Z,21.63
2019-02-22T01:18:56.166Z,21.43
2019-02-22T01:21:25.458Z,22.43
2019-02-22T01:23:54.743Z,21.03
2019-02-22T01:26:24.040Z,22.90
2019-02-22T01:28:53.323Z,21.57
2019-02-22T01:31:22.910Z,22.43
2019-02-22T01:33:54.112Z,21.50
2019-02-22T01:36:23.182Z,21.70
2019-02-22T01:38:52.465Z,21.33
2019-02-22T01:41:21.759Z,21.90
2019-02-22T01:43:51.098Z,22.47
2019-02-22T01:46:20.403Z,21.10
2019-02-22T01:48:49.686Z,23.37
2019-02-22T01:51:19.959Z,21.80
2019-02-22T01:53:49.293Z,21.13
2019-02-22T01:56:18.611Z,21.03
2019-02-22T01:58:48.899Z,21.10
2019-02-22T02:01:18.462Z,20.87
2019-02-22T02:03:47.739Z,20.33
2019-02-22T02:06:17.202Z,19.67
2019-02-22T02:08:46.554Z,20.07
2019-02-22T02:11:15.846Z,19.63
2019-02-22T02:13:45.134Z,20.43
2019-02-22T02:16:14.424Z,18.73
2019-02-22T02:18:43.696Z,19.73
2019-02-22T02:21:12.986Z,18.50
2019-02-22T02:23:42.271Z,17.57
2019-02-22T02:26:11.565Z,19.10
2019-02-22T02:28:40.848Z,18.63
2019-02-22T02:31:10.136Z,19.00
2019-02-22T02:33:39.406Z,18.93
2019-02-22T02:36:08.727Z,19.13
2019-02-22T02:38:38.011Z,19.13
2019-02-22T02:41:11.152Z,19.43
2019-02-22T02:43:38.287Z,19.17
2019-02-22T02:46:07.563Z,19.27
2019-02-22T02:48:37.828Z,17.67
2019-02-22T02:51:07.117Z,18.03
2019-02-22T02:53:36.413Z,17.20
2019-02-22T02:56:05.701Z,18.80
2019-02-22T02:58:34.987Z,17.67
2019-02-22T03:01:04.334Z,18.10
2019-02-22T03:03:33.607Z,18.67
2019-02-22T03:06:04.542Z,18.47
2019-02-22T03:08:34.891Z,17.63
2019-02-22T03:11:04.179Z,18.13
2019-02-22T03:13:33.466Z,17.80
2019-02-22T03:16:02.752Z,19.53
2019-02-22T03:18:32.047Z,19.20
2019-02-22T03:21:01.330Z,17.63
2019-02-22T03:23:30.628Z,18.37
2019-02-22T03:25:59.912Z,19.27
2019-02-22T03:28:29.217Z,19.57
2019-02-22T03:30:58.510Z,20.47
2019-02-22T03:33:27.926Z,19.30
2019-02-22T03:35:57.262Z,19.97
2019-02-22T03:38:26.565Z,20.93
2019-02-22T03:40:55.852Z,21.40
2019-02-22T03:43:25.150Z,21.20
2019-02-22T03:45:55.399Z,21.03
2019-02-22T03:48:24.689Z,21.83
2019-02-22T03:50:53.967Z,20.90
2019-02-22T03:53:24.972Z,20.77
2019-02-22T03:55:54.268Z,22.47
2019-02-22T03:58:23.565Z,21.53
2019-02-22T04:00:52.845Z,21.37
2019-02-22T04:03:22.139Z,22.03
2019-02-22T04:05:51.423Z,21.60
2019-02-22T04:08:20.723Z,21.60
2019-02-22T04:10:50.020Z,22.20
2019-02-22T04:13:19.312Z,22.53
2019-02-22T04:15:48.611Z,21.40
2019-02-22T04:18:17.916Z,22.47
2019-02-22T04:20:47.187Z,23.63
2019-02-22T04:23:16.495Z,22.30
2019-02-22T04:25:45.784Z,22.93
2019-02-22T04:28:15.086Z,22.40
2019-02-22T04:30:44.382Z,22.50
2019-02-22T04:33:13.673Z,22.20
2019-02-22T04:35:42.964Z,22.13
2019-02-22T04:38:12.256Z,21.70
2019-02-22T04:40:41.544Z,22.43
2019-02-22T04:43:10.835Z,23.10
2019-02-22T04:45:40.119Z,23.23
2019-02-22T04:48:09.427Z,22.70
2019-02-22T04:50:38.715Z,24.93
2019-02-22T04:53:08.025Z,24.23
2019-02-22T04:55:37.316Z,24.73
2019-02-22T04:58:06.748Z,25.97
2019-02-22T05:00:36.046Z,25.03
2019-02-22T05:03:05.422Z,25.27
2019-02-22T05:05:34.711Z,25.10
2019-02-22T05:08:04.004Z,24.97
2019-02-22T05:10:33.298Z,23.00
2019-02-22T05:13:02.669Z,24.70
2019-02-22T05:15:31.979Z,26.33
2019-02-22T05:18:01.255Z,24.17
2019-02-22T05:20:30.551Z,22.77
2019-02-22T05:23:03.920Z,24.50
2019-02-22T05:25:30.835Z,22.17
2019-02-22T05:28:00.114Z,23.40
2019-02-22T05:30:29.408Z,24.33
2019-02-22T05:32:58.691Z,23.20
2019-02-22T05:35:28.006Z,23.03
2019-02-22T05:37:57.267Z,23.53
2019-02-22T05:40:26.569Z,23.73
2019-02-22T05:42:56.831Z,23.60
2019-02-22T05:45:26.124Z,23.90
2019-02-22T05:47:55.412Z,23.67
2019-02-22T05:50:25.698Z,23.33
2019-02-22T05:52:54.977Z,24.70
2019-02-22T05:55:24.270Z,23.73
2019-02-22T05:57:53.561Z,22.90
2019-02-22T06:00:22.923Z,24.33
2019-02-22T06:02:52.207Z,22.37
2019-02-22T06:05:21.662Z,22.43
2019-02-22T06:07:50.938Z,25.53
2019-02-22T06:10:20.315Z,25.23
2019-02-22T06:12:49.613Z,24.93
2019-02-22T06:15:18.915Z,24.50
2019-02-22T06:17:48.691Z,25.53
2019-02-22T06:20:17.988Z,25.20
2019-02-22T06:22:47.279Z,23.83
2019-02-22T06:25:16.574Z,23.20
2019-02-22T06:27:45.926Z,23.20
2019-02-22T06:30:15.224Z,23.97
2019-02-22T06:32:44.515Z,23.37
2019-02-22T06:35:13.814Z,23.50
2019-02-22T06:37:43.100Z,26.23
2019-02-22T06:40:12.463Z,23.37
2019-02-22T06:42:45.880Z,23.27
2019-02-22T06:45:12.744Z,23.30
2019-02-22T06:47:42.027Z,24.17
2019-02-22T06:50:11.323Z,23.70
2019-02-22T06:52:40.605Z,23.23
2019-02-22T06:55:09.896Z,24.53
2019-02-22T06:57:39.181Z,22.63
2019-02-22T07:00:13.052Z,24.53
2019-02-22T07:02:42.321Z,24.30
2019-02-22T07:05:11.616Z,23.93
2019-02-22T07:07:40.895Z,22.23
2019-02-22T07:10:11.403Z,23.53
2019-02-22T07:12:42.405Z,24.80
2019-02-22T07:15:11.779Z,24.07
2019-02-22T07:17:41.066Z,24.63
2019-02-22T07:20:11.309Z,23.70
2019-02-22T07:22:40.592Z,23.90
2019-02-22T07:25:11.627Z,24.47
2019-02-22T07:27:40.931Z,24.83
2019-02-22T07:30:11.395Z,26.60
2019-02-22T07:32:40.768Z,25.17
2019-02-22T07:35:10.153Z,26.90
2019-02-22T07:37:39.442Z,26.00
2019-02-22T07:40:09.691Z,25.60
2019-02-22T07:42:38.985Z,26.03
2019-02-22T07:45:10.317Z,24.53
2019-02-22T07:47:39.614Z,25.20
2019-02-22T07:50:10.242Z,25.37
2019-02-22T07:52:39.530Z,24.90
2019-02-22T07:55:09.950Z,25.07
2019-02-22T07:57:40.082Z,24.17
2019-02-22T08:00:12.870Z,25.00
2019-02-22T08:02:42.154Z,26.10
2019-02-22T08:05:11.439Z,26.57
2019-02-22T08:07:40.728Z,25.53
2019-02-22T08:10:10.013Z,25.13
2019-02-22T08:12:39.307Z,26.43
2019-02-22T08:15:10.144Z,28.27
2019-02-22T08:17:39.503Z,26.70
2019-02-22T08:20:10.996Z,27.63
2019-02-22T08:22:40.283Z,28.87
2019-02-22T08:25:09.563Z,29.03
2019-02-22T08:27:40.194Z,28.13
2019-02-22T08:30:11.143Z,27.40
2019-02-22T08:32:40.440Z,28.03
2019-02-22T08:35:10.795Z,28.57
2019-02-22T08:37:40.152Z,29.67
2019-02-22T08:40:10.576Z,26.70
2019-02-22T08:42:39.867Z,28.87
2019-02-22T08:45:10.782Z,28.80
2019-02-22T08:47:40.078Z,29.07
2019-02-22T08:50:09.423Z,27.70
2019-02-22T08:52:38.715Z,29.20
2019-02-22T08:55:08.173Z,30.53
2019-02-22T08:57:37.473Z,28.63
2019-02-22T09:00:12.248Z,31.20
2019-02-22T09:02:41.811Z,30.87
2019-02-22T09:05:11.107Z,28.73
2019-02-22T09:07:40.404Z,29.17
2019-02-22T09:10:11.397Z,29.47
2019-02-22T09:12:40.687Z,29.03
2019-02-22T09:15:10.545Z,26.63
2019-02-22T09:17:39.838Z,27.90
2019-02-22T09:20:11.340Z,28.97
2019-02-22T09:22:40.728Z,28.73
2019-02-22T09:25:10.012Z,27.80
2019-02-22T09:27:39.322Z,28.87
2019-02-22T09:30:11.146Z,27.83
2019-02-22T09:32:40.451Z,28.73
2019-02-22T09:35:12.629Z,29.20
2019-02-22T09:37:41.920Z,28.13
2019-02-22T09:40:14.650Z,26.03
2019-02-22T09:42:43.156Z,27.77
2019-02-22T09:45:12.910Z,26.33
2019-02-22T09:47:42.227Z,25.60
2019-02-22T09:50:13.665Z,26.03
2019-02-22T09:52:43.024Z,28.03
2019-02-22T09:55:13.761Z,27.37
2019-02-22T09:57:43.060Z,25.70
2019-02-22T10:00:14.155Z,26.50
2019-02-22T10:02:44.840Z,25.60
2019-02-22T10:05:14.675Z,26.63
2019-02-22T10:07:43.972Z,26.07
2019-02-22T10:10:13.251Z,25.60
2019-02-22T10:12:42.548Z,24.83
2019-02-22T10:15:11.844Z,27.20
2019-02-22T10:17:41.135Z,24.80
2019-02-22T10:20:10.795Z,24.30
2019-02-22T10:22:40.089Z,24.50
2019-02-22T10:25:09.441Z,24.57
2019-02-22T10:27:38.734Z,24.60
2019-02-22T10:30:12.595Z,24.00
2019-02-22T10:32:41.891Z,23.73
2019-02-22T10:35:11.184Z,24.53
2019-02-22T10:37:40.494Z,23.77
2019-02-22T10:40:10.259Z,23.67
2019-02-22T10:42:39.554Z,20.80
2019-02-22T10:45:10.491Z,20.57
2019-02-22T10:47:39.859Z,19.40
2019-02-22T10:50:09.534Z,19.53
2019-02-22T10:52:38.815Z,19.43
2019-02-22T10:55:10.657Z,19.10
2019-02-22T10:57:39.955Z,18.23
2019-02-22T11:00:13.933Z,18.03
2019-02-22T11:02:43.219Z,15.67
2019-02-22T11:05:12.523Z,16.47
2019-02-22T11:07:41.803Z,16.30
2019-02-22T11:10:12.538Z,16.90
2019-02-22T11:12:41.831Z,16.33
2019-02-22T11:15:12.380Z,16.37
2019-02-22T11:17:41.739Z,15.27
2019-02-22T11:20:11.855Z,15.13
2019-02-22T11:22:41.295Z,15.43
2019-02-22T11:25:15.567Z,16.53
2019-02-22T11:27:44.868Z,16.10
2019-02-22T11:30:15.770Z,15.20
2019-02-22T11:32:45.054Z,14.40
2019-02-22T11:35:14.355Z,13.40
2019-02-22T11:37:43.649Z,11.63
2019-02-22T11:40:13.118Z,12.30
2019-02-22T11:42:42.507Z,11.97
2019-02-22T11:45:14.823Z,11.67
2019-02-22T11:47:45.029Z,11.67
2019-02-22T11:50:15.468Z,12.57
2019-02-22T11:52:47.435Z,12.07
2019-02-22T11:55:16.761Z,12.13
2019-02-22T11:57:46.118Z,11.37
2019-02-22T12:00:25.036Z,13.20
2019-02-22T12:02:54.353Z,13.90
2019-02-22T12:05:23.670Z,12.93
2019-02-22T12:07:52.964Z,13.00
2019-02-22T12:10:22.272Z,13.17
2019-02-22T12:12:51.559Z,13.93
2019-02-22T12:15:20.960Z,14.00
2019-02-22T12:17:50.307Z,12.47
2019-02-22T12:20:22.292Z,11.10
2019-02-22T12:22:51.592Z,11.20
2019-02-22T12:25:20.904Z,11.27
2019-02-22T12:27:50.191Z,11.70
2019-02-22T12:30:19.484Z,11.60
2019-02-22T12:32:48.773Z,11.70
2019-02-22T12:35:18.160Z,11.27
2019-02-22T12:37:47.527Z,10.50
2019-02-22T12:40:16.938Z,10.77
2019-02-22T12:42:46.231Z,10.80
2019-02-22T12:45:15.531Z,10.27
2019-02-22T12:47:44.806Z,9.13
2019-02-22T12:50:14.560Z,10.27
2019-02-22T12:52:43.927Z,8.20
2019-02-22T12:55:13.235Z,9.40
2019-02-22T12:57:42.539Z,9.20
2019-02-22T13:00:16.694Z,9.00
2019-02-22T13:02:46.063Z,8.90
2019-02-22T13:05:17.892Z,8.27
2019-02-22T13:07:47.180Z,7.80
2019-02-22T13:10:16.478Z,9.77
2019-02-22T13:12:46.072Z,8.57
2019-02-22T13:15:15.825Z,9.87
2019-02-22T13:17:45.181Z,9.63
2019-02-22T13:20:14.468Z,10.40
2019-02-22T13:22:43.763Z,12.13
2019-02-22T13:25:13.051Z,11.53
2019-02-22T13:27:42.397Z,11.77
2019-02-22T13:30:13.639Z,11.53
2019-02-22T13:32:43.004Z,12.00
2019-02-22T13:35:12.364Z,10.87
2019-02-22T13:37:41.742Z,11.60
2019-02-22T13:40:14.139Z,11.60
2019-02-22T13:42:43.478Z,10.90
2019-02-22T13:45:13.399Z,11.93
2019-02-22T13:47:42.738Z,10.00
2019-02-22T13:50:14.535Z,9.70
2019-02-22T13:52:43.830Z,9.07
2019-02-22T13:55:14.669Z,8.63
2019-02-22T13:57:43.946Z,9.87
2019-02-22T14:00:19.091Z,8.37
2019-02-22T14:02:48.361Z,8.60
2019-02-22T14:05:17.640Z,7.57
2019-02-22T14:07:54.639Z,7.80
2019-02-22T14:10:25.176Z,7.97
2019-02-22T14:12:54.476Z,8.43
2019-02-22T14:15:23.819Z,8.47
2019-02-22T14:17:53.347Z,7.60
2019-02-22T14:20:22.705Z,7.87
2019-02-22T14:22:53.151Z,9.40
2019-02-22T14:25:22.483Z,13.77
2019-02-22T14:27:51.785Z,14.27
2019-02-22T14:30:21.054Z,15.50
2019-02-22T14:32:50.587Z,15.67
2019-02-22T14:35:19.867Z,17.10
2019-02-22T14:37:49.285Z,17.90
2019-02-22T14:40:18.666Z,18.10
2019-02-22T14:42:47.981Z,17.57
2019-02-22T14:45:17.260Z,18.77
2019-02-22T14:47:46.623Z,19.23
2019-02-22T14:50:17.644Z,19.93
2019-02-22T14:52:47.208Z,20.27
2019-02-22T14:55:16.570Z,20.67
2019-02-22T14:57:45.860Z,19.00
2019-02-22T15:00:21.431Z,20.63
2019-02-22T15:02:50.892Z,19.90
2019-02-22T15:05:20.175Z,18.83
2019-02-22T15:07:49.472Z,18.30
2019-02-22T15:10:19.131Z,18.53
2019-02-22T15:12:48.519Z,21.00
2019-02-22T15:15:20.324Z,18.33
2019-02-22T15:17:51.255Z,17.67
2019-02-22T15:20:20.613Z,16.97
2019-02-22T15:22:49.904Z,16.67
2019-02-22T15:25:19.463Z,16.40
2019-02-22T15:27:48.757Z,14.77
2019-02-22T15:30:18.133Z,17.23
2019-02-22T15:32:47.512Z,16.20
2019-02-22T15:35:17.929Z,16.53
2019-02-22T15:37:47.371Z,16.80
2019-02-22T15:40:16.676Z,15.10
2019-02-22T15:42:46.023Z,17.03
2019-02-22T15:45:19.158Z,15.83
2019-02-22T15:47:49.115Z,15.33
2019-02-22T15:50:19.191Z,15.93
2019-02-22T15:52:49.624Z,15.20
2019-02-22T15:55:19.235Z,14.77
2019-02-22T15:57:48.519Z,14.17
2019-02-22T16:00:26.723Z,15.50
2019-02-22T16:02:56.054Z,14.10
2019-02-22T16:05:26.979Z,15.47
2019-02-22T16:07:56.325Z,15.67
2019-02-22T16:10:25.620Z,16.67
2019-02-22T16:12:55.079Z,17.60
2019-02-22T16:15:24.387Z,17.33
2019-02-22T16:17:53.662Z,16.83
2019-02-22T16:20:22.959Z,17.57
2019-02-22T16:22:53.309Z,18.50
2019-02-22T16:25:22.675Z,16.63
2019-02-22T16:27:51.959Z,16.83
2019-02-22T16:30:22.903Z,15.60
2019-02-22T16:32:52.186Z,16.60
2019-02-22T16:35:21.483Z,13.93
2019-02-22T16:37:50.777Z,15.60
2019-02-22T16:40:20.088Z,15.40
2019-02-22T16:42:49.370Z,15.03
2019-02-22T16:45:18.710Z,14.77
2019-02-22T16:47:48.022Z,15.10
2019-02-22T16:50:17.324Z,14.27
2019-02-22T16:52:46.684Z,14.33
2019-02-22T16:55:16.543Z,14.23
2019-02-22T16:57:45.900Z,15.03
2019-02-22T17:00:16.575Z,16.00
2019-02-22T17:02:45.920Z,14.40
2019-02-22T17:05:16.453Z,13.83
2019-02-22T17:07:45.750Z,15.13
2019-02-22T17:10:15.069Z,13.40
2019-02-22T17:12:44.347Z,14.03
2019-02-22T17:15:14.479Z,13.90
2019-02-22T17:17:43.857Z,13.60
2019-02-22T17:20:14.633Z,13.93
2019-02-22T17:22:43.926Z,13.77
2019-02-22T17:25:17.891Z,14.07
2019-02-22T17:27:47.175Z,14.67
2019-02-22T17:30:19.544Z,13.33
2019-02-22T17:32:48.829Z,14.83
2019-02-22T17:35:18.123Z,14.73
2019-02-22T17:37:47.410Z,16.07
2019-02-22T17:40:21.668Z,16.17
2019-02-22T17:42:50.958Z,17.80
2019-02-22T17:45:20.415Z,14.77
2019-02-22T17:47:49.729Z,15.07
2019-02-22T17:57:20.065Z,15.80
2019-02-22T18:02:44.929Z,16.37
2019-02-22T18:05:14.220Z,16.67
2019-02-22T18:07:43.503Z,16.83
2019-02-22T18:10:12.870Z,16.37
2019-02-22T18:12:42.224Z,16.20
2019-02-22T18:15:17.972Z,17.40
2019-02-22T18:17:48.390Z,17.13
2019-02-22T18:20:17.683Z,17.13
2019-02-22T18:22:47.233Z,16.13
2019-02-22T18:25:17.353Z,16.80
2019-02-22T18:27:46.649Z,16.27
2019-02-22T18:30:21.597Z,17.40
2019-02-22T18:32:50.875Z,16.30
2019-02-22T18:35:20.167Z,16.27
2019-02-22T18:37:50.487Z,16.90
2019-02-22T18:40:22.207Z,18.23
2019-02-22T18:42:51.498Z,16.93
2019-02-22T18:45:20.799Z,16.63
2019-02-22T18:47:50.086Z,15.57
2019-02-22T18:50:19.740Z,17.30
2019-02-22T18:52:49.050Z,18.90
2019-02-22T18:55:18.331Z,18.70
2019-02-22T18:57:47.678Z,17.67
2019-02-22T19:00:21.430Z,18.67
2019-02-22T19:02:50.783Z,19.40
2019-02-22T19:05:20.123Z,20.30
2019-02-22T19:07:49.515Z,19.77
2019-02-22T19:10:19.639Z,19.27
2019-02-22T19:12:48.937Z,20.57
2019-02-22T19:15:18.222Z,20.50
2019-02-22T19:17:47.517Z,19.97
2019-02-22T19:20:21.018Z,21.83
2019-02-22T19:22:50.379Z,18.37
2019-02-22T19:25:19.672Z,22.70
2019-02-22T19:27:48.967Z,21.97
2019-02-22T19:30:23.518Z,21.17
2019-02-22T19:32:52.824Z,19.93
2019-02-22T19:35:22.107Z,20.87
2019-02-22T19:37:51.403Z,18.90
2019-02-22T19:40:26.400Z,21.43
2019-02-22T19:42:55.681Z,20.33
2019-02-22T19:45:24.963Z,21.23
2019-02-22T19:47:54.258Z,21.33
2019-02-22T19:50:23.616Z,19.40
2019-02-22T19:52:52.919Z,18.33
2019-02-22T19:55:22.210Z,20.57
2019-02-22T19:57:51.499Z,20.43
2019-02-22T20:00:20.809Z,20.30
2019-02-22T20:02:50.104Z,19.80
2019-02-22T20:05:19.386Z,21.43
2019-02-22T20:07:48.674Z,22.27
2019-02-22T20:10:24.211Z,20.73
2019-02-22T20:12:53.517Z,20.07
2019-02-22T20:15:22.940Z,20.77
2019-02-22T20:17:54.726Z,22.47
2019-02-22T20:20:23.211Z,18.93
2019-02-22T20:22:52.500Z,20.90
2019-02-22T20:25:21.783Z,20.13
2019-02-22T20:27:51.151Z,17.53
2019-02-22T20:30:20.613Z,17.40
2019-02-22T20:32:50.004Z,17.10
2019-02-22T20:35:24.357Z,16.53
2019-02-22T20:37:53.724Z,16.93
2019-02-22T20:40:23.001Z,16.40
2019-02-22T20:42:52.364Z,15.93
2019-02-22T20:45:21.711Z,16.50
2019-02-22T20:47:51.153Z,16.43
2019-02-22T20:50:21.645Z,15.57
2019-02-22T20:52:50.945Z,15.30
2019-02-22T20:55:20.245Z,15.30
2019-02-22T20:57:49.535Z,14.63
2019-02-22T21:00:28.787Z,15.77
2019-02-22T21:02:58.086Z,15.90
2019-02-22T21:05:27.367Z,17.27
2019-02-22T21:07:56.664Z,16.30
2019-02-22T21:10:25.958Z,15.40
2019-02-22T21:12:55.257Z,15.77
2019-02-22T21:15:24.607Z,17.23
2019-02-22T21:17:53.898Z,15.30
2019-02-22T21:20:23.455Z,15.90
2019-02-22T21:22:52.753Z,15.33
2019-02-22T21:25:22.036Z,14.87
2019-02-22T21:27:51.327Z,15.73
2019-02-22T21:30:21.609Z,13.53
2019-02-22T21:32:50.942Z,14.60
2019-02-22T21:35:20.222Z,14.20
2019-02-22T21:37:49.515Z,14.97
2019-02-22T21:40:21.413Z,15.73
2019-02-22T21:42:50.694Z,15.20
2019-02-22T21:45:19.989Z,16.43
2019-02-22T21:47:54.875Z,15.90
2019-02-22T21:50:20.268Z,16.27
2019-02-22T21:52:49.553Z,15.20
2019-02-22T21:55:18.848Z,15.07
2019-02-22T21:57:48.131Z,14.83
2019-02-22T22:00:26.008Z,14.77
2019-02-22T22:02:55.291Z,15.50
2019-02-22T22:05:24.583Z,14.57
2019-02-22T22:07:53.871Z,13.57
2019-02-22T22:10:23.166Z,14.70
2019-02-22T22:12:52.456Z,13.07
2019-02-22T22:15:21.751Z,15.00
2019-02-22T22:17:51.039Z,15.33
2019-02-22T22:20:20.356Z,15.00
2019-02-22T22:22:49.634Z,13.77
2019-02-22T22:25:18.932Z,14.23
2019-02-22T22:27:48.217Z,14.53
2019-02-22T22:30:17.512Z,14.20
2019-02-22T22:32:46.805Z,15.47
2019-02-22T22:35:17.134Z,15.60
2019-02-22T22:37:46.469Z,14.97
2019-02-22T22:40:15.787Z,15.77
2019-02-22T22:42:45.071Z,14.53
2019-02-22T22:45:15.553Z,16.33
2019-02-22T22:47:44.862Z,14.63
2019-02-22T22:50:17.633Z,16.00
2019-02-22T22:52:46.934Z,15.33
2019-02-22T22:55:16.227Z,15.57
2019-02-22T22:57:45.507Z,15.97
2019-02-22T23:00:51.475Z,15.47
2019-02-22T23:03:22.432Z,16.53
2019-02-22T23:05:51.799Z,16.80
2019-02-22T23:08:21.090Z,16.57
2019-02-22T23:10:50.451Z,15.17
2019-02-22T23:13:21.431Z,17.27
2019-02-22T23:15:50.727Z,16.63
2019-02-22T23:18:20.013Z,17.23
2019-02-22T23:20:49.310Z,16.20
2019-02-22T23:23:18.588Z,17.13
2019-02-22T23:25:47.990Z,18.60
2019-02-22T23:28:18.413Z,16.17
2019-02-22T23:30:47.703Z,16.77
2019-02-22T23:33:16.991Z,17.87
2019-02-22T23:35:46.286Z,16.77
2019-02-22T23:38:15.562Z,17.93
2019-02-22T23:40:44.867Z,17.23
2019-02-22T23:43:14.156Z,15.50
2019-02-22T23:45:43.447Z,16.60
2019-02-22T23:48:12.731Z,17.27
2019-02-22T23:50:42.030Z,16.03
2019-02-22T23:53:11.310Z,16.23
2019-02-22T23:55:45.451Z,16.60
2019-02-22T23:58:14.734Z,17.77
